sensor_id;sensor_type;location;lat;lon;timestamp;temperature;humidity
76785;SHT30;66893;44.316;0.092;2023-04-15T00:00:10;17.51;57.40
76785;SHT30;66893;44.316;0.092;2023-04-15T00:02:36;17.52;57.46
76785;SHT30;66893;44.316;0.092;2023-04-15T00:05:02;17.50;57.45
76785;SHT30;66893;44.316;0.092;2023-04-15T00:07:27;17.50;57.44
76785;SHT30;66893;44.316;0.092;2023-04-15T00:09:54;17.51;57.48
76785;SHT30;66893;44.316;0.092;2023-04-15T00:12:22;17.48;57.53
76785;SHT30;66893;44.316;0.092;2023-04-15T00:14:47;17.48;57.52
76785;SHT30;66893;44.316;0.092;2023-04-15T00:17:14;17.47;57.59
76785;SHT30;66893;44.316;0.092;2023-04-15T00:19:39;17.45;57.53
76785;SHT30;66893;44.316;0.092;2023-04-15T00:22:05;17.45;57.57
76785;SHT30;66893;44.316;0.092;2023-04-15T00:24:31;17.44;57.57
76785;SHT30;66893;44.316;0.092;2023-04-15T00:26:57;17.44;57.55
76785;SHT30;66893;44.316;0.092;2023-04-15T00:29:23;17.45;57.55
76785;SHT30;66893;44.316;0.092;2023-04-15T00:31:48;17.45;57.55
76785;SHT30;66893;44.316;0.092;2023-04-15T00:34:14;17.45;57.60
76785;SHT30;66893;44.316;0.092;2023-04-15T00:36:39;17.45;57.57
76785;SHT30;66893;44.316;0.092;2023-04-15T00:39:05;17.45;57.59
76785;SHT30;66893;44.316;0.092;2023-04-15T00:41:31;17.45;57.54
76785;SHT30;66893;44.316;0.092;2023-04-15T00:43:58;17.44;57.58
76785;SHT30;66893;44.316;0.092;2023-04-15T00:46:25;17.44;57.61
76785;SHT30;66893;44.316;0.092;2023-04-15T00:48:53;17.44;57.57
76785;SHT30;66893;44.316;0.092;2023-04-15T00:51:18;17.42;57.54
76785;SHT30;66893;44.316;0.092;2023-04-15T00:53:44;17.41;57.60
76785;SHT30;66893;44.316;0.092;2023-04-15T00:56:10;17.42;57.58
76785;SHT30;66893;44.316;0.092;2023-04-15T00:58:35;17.42;57.55
76785;SHT30;66893;44.316;0.092;2023-04-15T01:01:02;17.40;57.60
76785;SHT30;66893;44.316;0.092;2023-04-15T01:03:28;17.38;57.58
76785;SHT30;66893;44.316;0.092;2023-04-15T01:05:54;17.38;57.57
76785;SHT30;66893;44.316;0.092;2023-04-15T01:08:27;17.38;57.58
76785;SHT30;66893;44.316;0.092;2023-04-15T01:10:54;17.38;57.57
76785;SHT30;66893;44.316;0.092;2023-04-15T01:13:22;17.35;57.58
76785;SHT30;66893;44.316;0.092;2023-04-15T01:15:48;17.38;57.57
76785;SHT30;66893;44.316;0.092;2023-04-15T01:18:14;17.37;57.59
76785;SHT30;66893;44.316;0.092;2023-04-15T01:20:39;17.32;57.59
76785;SHT30;66893;44.316;0.092;2023-04-15T01:23:05;17.35;57.58
76785;SHT30;66893;44.316;0.092;2023-04-15T01:25:32;17.34;57.59
76785;SHT30;66893;44.316;0.092;2023-04-15T01:27:58;17.32;57.56
76785;SHT30;66893;44.316;0.092;2023-04-15T01:30:23;17.34;57.56
76785;SHT30;66893;44.316;0.092;2023-04-15T01:32:50;17.35;57.64
76785;SHT30;66893;44.316;0.092;2023-04-15T01:35:16;17.34;57.64
76785;SHT30;66893;44.316;0.092;2023-04-15T01:37:41;17.32;57.67
76785;SHT30;66893;44.316;0.092;2023-04-15T01:40:07;17.32;57.70
76785;SHT30;66893;44.316;0.092;2023-04-15T01:42:34;17.31;57.70
76785;SHT30;66893;44.316;0.092;2023-04-15T01:45:01;17.31;57.73
76785;SHT30;66893;44.316;0.092;2023-04-15T01:47:26;17.31;57.70
76785;SHT30;66893;44.316;0.092;2023-04-15T01:49:52;17.30;57.75
76785;SHT30;66893;44.316;0.092;2023-04-15T01:52:17;17.28;57.78
76785;SHT30;66893;44.316;0.092;2023-04-15T01:54:43;17.31;57.83
76785;SHT30;66893;44.316;0.092;2023-04-15T01:57:09;17.31;57.81
76785;SHT30;66893;44.316;0.092;2023-04-15T01:59:34;17.28;57.83
76785;SHT30;66893;44.316;0.092;2023-04-15T02:02:00;17.31;57.88
76785;SHT30;66893;44.316;0.092;2023-04-15T02:04:25;17.30;57.94
76785;SHT30;66893;44.316;0.092;2023-04-15T02:06:52;17.27;57.95
76785;SHT30;66893;44.316;0.092;2023-04-15T02:09:17;17.26;58.00
76785;SHT30;66893;44.316;0.092;2023-04-15T02:11:43;17.28;58.03
76785;SHT30;66893;44.316;0.092;2023-04-15T02:14:09;17.27;58.07
76785;SHT30;66893;44.316;0.092;2023-04-15T02:16:34;17.27;58.07
76785;SHT30;66893;44.316;0.092;2023-04-15T02:19:00;17.27;58.10
76785;SHT30;66893;44.316;0.092;2023-04-15T02:21:26;17.28;58.13
76785;SHT30;66893;44.316;0.092;2023-04-15T02:23:52;17.26;58.16
76785;SHT30;66893;44.316;0.092;2023-04-15T02:26:18;17.26;58.16
76785;SHT30;66893;44.316;0.092;2023-04-15T02:28:45;17.24;58.18
76785;SHT30;66893;44.316;0.092;2023-04-15T02:31:10;17.24;58.24
76785;SHT30;66893;44.316;0.092;2023-04-15T02:33:36;17.24;58.21
76785;SHT30;66893;44.316;0.092;2023-04-15T02:36:02;17.24;58.25
76785;SHT30;66893;44.316;0.092;2023-04-15T02:38:28;17.24;58.27
76785;SHT30;66893;44.316;0.092;2023-04-15T02:40:53;17.26;58.18
76785;SHT30;66893;44.316;0.092;2023-04-15T02:43:19;17.26;58.17
76785;SHT30;66893;44.316;0.092;2023-04-15T02:45:45;17.26;58.27
76785;SHT30;66893;44.316;0.092;2023-04-15T02:48:11;17.26;58.19
76785;SHT30;66893;44.316;0.092;2023-04-15T02:50:36;17.24;58.22
76785;SHT30;66893;44.316;0.092;2023-04-15T02:53:03;17.24;58.21
76785;SHT30;66893;44.316;0.092;2023-04-15T02:55:30;17.27;58.22
76785;SHT30;66893;44.316;0.092;2023-04-15T02:57:55;17.27;58.22
76785;SHT30;66893;44.316;0.092;2023-04-15T03:00:23;17.24;58.18
76785;SHT30;66893;44.316;0.092;2023-04-15T03:02:49;17.26;58.25
76785;SHT30;66893;44.316;0.092;2023-04-15T03:05:21;17.24;58.24
76785;SHT30;66893;44.316;0.092;2023-04-15T03:07:50;17.24;58.29
76785;SHT30;66893;44.316;0.092;2023-04-15T03:10:16;17.27;58.32
76785;SHT30;66893;44.316;0.092;2023-04-15T03:12:41;17.24;58.31
76785;SHT30;66893;44.316;0.092;2023-04-15T03:15:07;17.24;58.41
76785;SHT30;66893;44.316;0.092;2023-04-15T03:17:33;17.26;58.39
76785;SHT30;66893;44.316;0.092;2023-04-15T03:20:03;17.24;58.37
76785;SHT30;66893;44.316;0.092;2023-04-15T03:22:30;17.26;58.44
76785;SHT30;66893;44.316;0.092;2023-04-15T03:24:56;17.21;58.47
76785;SHT30;66893;44.316;0.092;2023-04-15T03:27:21;17.24;58.48
76785;SHT30;66893;44.316;0.092;2023-04-15T03:29:47;17.24;58.54
76785;SHT30;66893;44.316;0.092;2023-04-15T03:32:13;17.24;58.50
76785;SHT30;66893;44.316;0.092;2023-04-15T03:34:42;17.24;58.54
76785;SHT30;66893;44.316;0.092;2023-04-15T03:37:08;17.24;58.60
76785;SHT30;66893;44.316;0.092;2023-04-15T03:39:34;17.23;58.56
76785;SHT30;66893;44.316;0.092;2023-04-15T03:42:00;17.26;58.59
76785;SHT30;66893;44.316;0.092;2023-04-15T03:44:26;17.21;58.67
76785;SHT30;66893;44.316;0.092;2023-04-15T03:46:52;17.21;58.64
76785;SHT30;66893;44.316;0.092;2023-04-15T03:49:18;17.23;58.62
76785;SHT30;66893;44.316;0.092;2023-04-15T03:51:44;17.23;58.69
76785;SHT30;66893;44.316;0.092;2023-04-15T03:54:09;17.24;58.72
76785;SHT30;66893;44.316;0.092;2023-04-15T03:56:36;17.21;58.69
76785;SHT30;66893;44.316;0.092;2023-04-15T03:59:01;17.23;58.69
76785;SHT30;66893;44.316;0.092;2023-04-15T04:01:27;17.23;58.70
76785;SHT30;66893;44.316;0.092;2023-04-15T04:03:52;17.23;58.69
76785;SHT30;66893;44.316;0.092;2023-04-15T04:06:17;17.19;58.68
76785;SHT30;66893;44.316;0.092;2023-04-15T04:08:43;17.23;58.72
76785;SHT30;66893;44.316;0.092;2023-04-15T04:11:08;17.17;58.75
76785;SHT30;66893;44.316;0.092;2023-04-15T04:13:34;17.17;58.72
76785;SHT30;66893;44.316;0.092;2023-04-15T04:16:00;17.17;58.73
76785;SHT30;66893;44.316;0.092;2023-04-15T04:18:25;17.14;58.68
76785;SHT30;66893;44.316;0.092;2023-04-15T04:20:51;17.19;58.68
76785;SHT30;66893;44.316;0.092;2023-04-15T04:23:16;17.16;58.67
76785;SHT30;66893;44.316;0.092;2023-04-15T04:25:42;17.16;58.67
76785;SHT30;66893;44.316;0.092;2023-04-15T04:28:07;17.14;58.57
76785;SHT30;66893;44.316;0.092;2023-04-15T04:30:34;17.14;58.67
76785;SHT30;66893;44.316;0.092;2023-04-15T04:33:00;17.17;58.59
76785;SHT30;66893;44.316;0.092;2023-04-15T04:35:25;17.16;58.57
76785;SHT30;66893;44.316;0.092;2023-04-15T04:37:51;17.13;58.61
76785;SHT30;66893;44.316;0.092;2023-04-15T04:40:18;17.12;58.54
76785;SHT30;66893;44.316;0.092;2023-04-15T04:42:43;17.12;58.55
76785;SHT30;66893;44.316;0.092;2023-04-15T04:45:09;17.16;58.52
76785;SHT30;66893;44.316;0.092;2023-04-15T04:47:34;17.14;58.52
76785;SHT30;66893;44.316;0.092;2023-04-15T04:50:00;17.12;58.51
76785;SHT30;66893;44.316;0.092;2023-04-15T04:52:26;17.12;58.48
76785;SHT30;66893;44.316;0.092;2023-04-15T04:54:51;17.13;58.50
76785;SHT30;66893;44.316;0.092;2023-04-15T04:57:17;17.12;58.50
76785;SHT30;66893;44.316;0.092;2023-04-15T04:59:42;17.09;58.46
76785;SHT30;66893;44.316;0.092;2023-04-15T05:02:07;17.09;58.50
76785;SHT30;66893;44.316;0.092;2023-04-15T05:04:33;17.09;58.48
76785;SHT30;66893;44.316;0.092;2023-04-15T05:06:58;17.07;58.43
76785;SHT30;66893;44.316;0.092;2023-04-15T05:09:24;17.07;58.42
76785;SHT30;66893;44.316;0.092;2023-04-15T05:11:49;17.07;58.46
76785;SHT30;66893;44.316;0.092;2023-04-15T05:14:15;17.07;58.43
76785;SHT30;66893;44.316;0.092;2023-04-15T05:16:40;17.07;58.43
76785;SHT30;66893;44.316;0.092;2023-04-15T05:19:06;17.07;58.41
76785;SHT30;66893;44.316;0.092;2023-04-15T05:21:32;17.09;58.41
76785;SHT30;66893;44.316;0.092;2023-04-15T05:23:57;17.07;58.35
76785;SHT30;66893;44.316;0.092;2023-04-15T05:26:23;17.06;58.38
76785;SHT30;66893;44.316;0.092;2023-04-15T05:28:49;17.06;58.32
76785;SHT30;66893;44.316;0.092;2023-04-15T05:31:14;17.06;58.31
76785;SHT30;66893;44.316;0.092;2023-04-15T05:33:40;17.07;58.31
76785;SHT30;66893;44.316;0.092;2023-04-15T05:36:06;17.06;58.29
76785;SHT30;66893;44.316;0.092;2023-04-15T05:38:31;17.07;58.29
76785;SHT30;66893;44.316;0.092;2023-04-15T05:40:57;17.06;58.28
76785;SHT30;66893;44.316;0.092;2023-04-15T05:43:23;17.09;58.28
76785;SHT30;66893;44.316;0.092;2023-04-15T05:45:48;17.09;58.19
76785;SHT30;66893;44.316;0.092;2023-04-15T05:48:14;17.07;58.19
76785;SHT30;66893;44.316;0.092;2023-04-15T05:50:42;17.10;58.13
76785;SHT30;66893;44.316;0.092;2023-04-15T05:53:08;17.09;58.08
76785;SHT30;66893;44.316;0.092;2023-04-15T05:55:33;17.12;58.01
76785;SHT30;66893;44.316;0.092;2023-04-15T05:57:59;17.13;57.99
76785;SHT30;66893;44.316;0.092;2023-04-15T06:00:24;17.13;57.94
76785;SHT30;66893;44.316;0.092;2023-04-15T06:02:50;17.14;57.93
76785;SHT30;66893;44.316;0.092;2023-04-15T06:05:15;17.14;57.74
76785;SHT30;66893;44.316;0.092;2023-04-15T06:07:41;17.10;57.70
76785;SHT30;66893;44.316;0.092;2023-04-15T06:10:08;17.09;57.80
76785;SHT30;66893;44.316;0.092;2023-04-15T06:12:34;17.04;57.77
76785;SHT30;66893;44.316;0.092;2023-04-15T06:15:00;17.06;57.72
76785;SHT30;66893;44.316;0.092;2023-04-15T06:17:25;17.06;57.73
76785;SHT30;66893;44.316;0.092;2023-04-15T06:19:51;17.07;57.65
76785;SHT30;66893;44.316;0.092;2023-04-15T06:22:23;17.09;57.66
76785;SHT30;66893;44.316;0.092;2023-04-15T06:24:49;17.09;57.65
76785;SHT30;66893;44.316;0.092;2023-04-15T06:27:15;17.12;57.60
76785;SHT30;66893;44.316;0.092;2023-04-15T06:29:41;17.10;57.52
76785;SHT30;66893;44.316;0.092;2023-04-15T06:32:06;17.10;57.45
76785;SHT30;66893;44.316;0.092;2023-04-15T06:34:32;17.14;57.44
76785;SHT30;66893;44.316;0.092;2023-04-15T06:36:58;17.13;57.34
76785;SHT30;66893;44.316;0.092;2023-04-15T06:39:23;17.12;57.31
76785;SHT30;66893;44.316;0.092;2023-04-15T06:41:48;17.13;57.26
76785;SHT30;66893;44.316;0.092;2023-04-15T06:44:14;17.13;57.20
76785;SHT30;66893;44.316;0.092;2023-04-15T06:46:40;17.14;57.12
76785;SHT30;66893;44.316;0.092;2023-04-15T06:49:06;17.14;57.10
76785;SHT30;66893;44.316;0.092;2023-04-15T06:51:33;17.17;57.05
76785;SHT30;66893;44.316;0.092;2023-04-15T06:53:58;17.16;57.04
76785;SHT30;66893;44.316;0.092;2023-04-15T06:56:24;17.17;56.92
76785;SHT30;66893;44.316;0.092;2023-04-15T06:58:49;17.17;56.97
76785;SHT30;66893;44.316;0.092;2023-04-15T07:01:15;17.19;56.91
76785;SHT30;66893;44.316;0.092;2023-04-15T07:03:40;17.19;56.89
76785;SHT30;66893;44.316;0.092;2023-04-15T07:06:06;17.20;56.86
76785;SHT30;66893;44.316;0.092;2023-04-15T07:08:32;17.20;56.81
76785;SHT30;66893;44.316;0.092;2023-04-15T07:10:59;17.21;56.62
76785;SHT30;66893;44.316;0.092;2023-04-15T07:13:24;17.20;56.51
76785;SHT30;66893;44.316;0.092;2023-04-15T07:15:50;17.13;56.58
76785;SHT30;66893;44.316;0.092;2023-04-15T07:18:16;17.13;56.60
76785;SHT30;66893;44.316;0.092;2023-04-15T07:20:41;17.16;56.59
76785;SHT30;66893;44.316;0.092;2023-04-15T07:23:07;17.20;56.58
76785;SHT30;66893;44.316;0.092;2023-04-15T07:25:32;17.20;56.52
76785;SHT30;66893;44.316;0.092;2023-04-15T07:27:58;17.21;56.50
76785;SHT30;66893;44.316;0.092;2023-04-15T07:30:23;17.24;56.42
76785;SHT30;66893;44.316;0.092;2023-04-15T07:32:48;17.23;56.40
76785;SHT30;66893;44.316;0.092;2023-04-15T07:35:14;17.24;56.39
76785;SHT30;66893;44.316;0.092;2023-04-15T07:37:39;17.28;56.27
76785;SHT30;66893;44.316;0.092;2023-04-15T07:40:06;17.28;56.23
76785;SHT30;66893;44.316;0.092;2023-04-15T07:42:33;17.27;56.21
76785;SHT30;66893;44.316;0.092;2023-04-15T07:44:58;17.32;56.19
76785;SHT30;66893;44.316;0.092;2023-04-15T07:47:24;17.31;56.14
76785;SHT30;66893;44.316;0.092;2023-04-15T07:49:51;17.34;56.11
76785;SHT30;66893;44.316;0.092;2023-04-15T07:52:17;17.41;56.03
76785;SHT30;66893;44.316;0.092;2023-04-15T07:54:44;17.44;55.92
76785;SHT30;66893;44.316;0.092;2023-04-15T07:57:09;17.48;55.91
76785;SHT30;66893;44.316;0.092;2023-04-15T07:59:35;17.51;55.78
76785;SHT30;66893;44.316;0.092;2023-04-15T08:02:01;17.54;55.66
76785;SHT30;66893;44.316;0.092;2023-04-15T08:04:27;17.57;55.54
76785;SHT30;66893;44.316;0.092;2023-04-15T08:06:52;17.59;55.51
76785;SHT30;66893;44.316;0.092;2023-04-15T08:09:19;17.59;55.39
76785;SHT30;66893;44.316;0.092;2023-04-15T08:11:46;17.64;55.35
76785;SHT30;66893;44.316;0.092;2023-04-15T08:14:12;17.67;55.22
76785;SHT30;66893;44.316;0.092;2023-04-15T08:16:37;17.65;55.12
76785;SHT30;66893;44.316;0.092;2023-04-15T08:19:03;17.67;55.08
76785;SHT30;66893;44.316;0.092;2023-04-15T08:21:30;17.68;54.98
76785;SHT30;66893;44.316;0.092;2023-04-15T08:23:55;17.68;55.01
76785;SHT30;66893;44.316;0.092;2023-04-15T08:26:21;17.71;54.94
76785;SHT30;66893;44.316;0.092;2023-04-15T08:28:47;17.72;54.93
76785;SHT30;66893;44.316;0.092;2023-04-15T08:31:14;17.74;54.91
76785;SHT30;66893;44.316;0.092;2023-04-15T08:33:40;17.78;54.87
76785;SHT30;66893;44.316;0.092;2023-04-15T08:36:06;17.81;54.81
76785;SHT30;66893;44.316;0.092;2023-04-15T08:38:32;17.87;54.75
76785;SHT30;66893;44.316;0.092;2023-04-15T08:41:08;17.89;54.83
76785;SHT30;66893;44.316;0.092;2023-04-15T08:43:45;17.92;54.42
76785;SHT30;66893;44.316;0.092;2023-04-15T08:46:12;17.93;53.83
76785;SHT30;66893;44.316;0.092;2023-04-15T08:48:39;17.93;53.55
76785;SHT30;66893;44.316;0.092;2023-04-15T08:51:05;17.89;53.43
76785;SHT30;66893;44.316;0.092;2023-04-15T08:53:31;17.86;53.26
76785;SHT30;66893;44.316;0.092;2023-04-15T08:55:59;17.87;53.10
76785;SHT30;66893;44.316;0.092;2023-04-15T08:58:28;17.85;53.02
76785;SHT30;66893;44.316;0.092;2023-04-15T09:00:55;17.83;52.92
76785;SHT30;66893;44.316;0.092;2023-04-15T09:03:21;17.79;52.65
76785;SHT30;66893;44.316;0.092;2023-04-15T09:05:49;17.79;52.87
76785;SHT30;66893;44.316;0.092;2023-04-15T09:08:15;17.83;52.96
76785;SHT30;66893;44.316;0.092;2023-04-15T09:10:40;17.87;53.02
76785;SHT30;66893;44.316;0.092;2023-04-15T09:13:06;17.89;53.00
76785;SHT30;66893;44.316;0.092;2023-04-15T09:15:32;17.89;52.96
76785;SHT30;66893;44.316;0.092;2023-04-15T09:17:57;17.92;53.03
76785;SHT30;66893;44.316;0.092;2023-04-15T09:20:23;17.92;53.01
76785;SHT30;66893;44.316;0.092;2023-04-15T09:22:49;17.95;52.97
76785;SHT30;66893;44.316;0.092;2023-04-15T09:25:25;17.96;52.95
76785;SHT30;66893;44.316;0.092;2023-04-15T09:27:54;18.03;52.84
76785;SHT30;66893;44.316;0.092;2023-04-15T09:30:20;18.06;52.78
76785;SHT30;66893;44.316;0.092;2023-04-15T09:32:54;18.09;52.65
76785;SHT30;66893;44.316;0.092;2023-04-15T09:35:21;18.17;52.54
76785;SHT30;66893;44.316;0.092;2023-04-15T09:37:51;18.23;52.49
76785;SHT30;66893;44.316;0.092;2023-04-15T09:43:00;18.29;52.31
76785;SHT30;66893;44.316;0.092;2023-04-15T09:45:27;18.31;52.22
76785;SHT30;66893;44.316;0.092;2023-04-15T09:47:53;18.30;52.24
76785;SHT30;66893;44.316;0.092;2023-04-15T09:50:19;18.33;52.22
76785;SHT30;66893;44.316;0.092;2023-04-15T09:52:45;18.33;52.19
76785;SHT30;66893;44.316;0.092;2023-04-15T09:55:12;18.36;52.19
76785;SHT30;66893;44.316;0.092;2023-04-15T09:57:38;18.36;52.16
76785;SHT30;66893;44.316;0.092;2023-04-15T10:00:09;18.37;52.06
76785;SHT30;66893;44.316;0.092;2023-04-15T10:02:36;18.41;52.11
76785;SHT30;66893;44.316;0.092;2023-04-15T10:05:02;18.41;52.14
76785;SHT30;66893;44.316;0.092;2023-04-15T10:07:28;18.41;52.02
76785;SHT30;66893;44.316;0.092;2023-04-15T10:09:54;18.44;51.87
76785;SHT30;66893;44.316;0.092;2023-04-15T10:12:21;18.48;51.74
76785;SHT30;66893;44.316;0.092;2023-04-15T10:14:57;18.52;51.75
76785;SHT30;66893;44.316;0.092;2023-04-15T10:17:26;18.55;51.67
76785;SHT30;66893;44.316;0.092;2023-04-15T10:19:53;18.58;51.54
76785;SHT30;66893;44.316;0.092;2023-04-15T10:22:19;18.64;51.46
76785;SHT30;66893;44.316;0.092;2023-04-15T10:24:46;18.67;51.34
76785;SHT30;66893;44.316;0.092;2023-04-15T10:27:13;18.71;51.22
76785;SHT30;66893;44.316;0.092;2023-04-15T10:29:39;18.73;51.09
76785;SHT30;66893;44.316;0.092;2023-04-15T10:32:05;18.78;51.10
76785;SHT30;66893;44.316;0.092;2023-04-15T10:34:31;18.82;51.04
76785;SHT30;66893;44.316;0.092;2023-04-15T10:37:00;18.89;51.02
76785;SHT30;66893;44.316;0.092;2023-04-15T10:42:15;18.96;50.80
76785;SHT30;66893;44.316;0.092;2023-04-15T10:44:44;19.03;50.73
76785;SHT30;66893;44.316;0.092;2023-04-15T10:47:14;19.07;50.61
76785;SHT30;66893;44.316;0.092;2023-04-15T10:52:13;19.22;50.31
76785;SHT30;66893;44.316;0.092;2023-04-15T10:54:39;19.27;50.10
76785;SHT30;66893;44.316;0.092;2023-04-15T10:59:59;19.37;49.97
76785;SHT30;66893;44.316;0.092;2023-04-15T11:02:57;19.40;49.43
76785;SHT30;66893;44.316;0.092;2023-04-15T11:05:48;19.44;48.85
76785;SHT30;66893;44.316;0.092;2023-04-15T11:08:14;19.41;48.65
76785;SHT30;66893;44.316;0.092;2023-04-15T11:15:39;19.57;48.68
76785;SHT30;66893;44.316;0.092;2023-04-15T11:20:34;19.67;48.72
76785;SHT30;66893;44.316;0.092;2023-04-15T11:23:00;19.69;48.66
76785;SHT30;66893;44.316;0.092;2023-04-15T11:25:27;19.74;48.65
76785;SHT30;66893;44.316;0.092;2023-04-15T11:27:54;19.79;48.51
76785;SHT30;66893;44.316;0.092;2023-04-15T11:30:28;19.85;48.38
76785;SHT30;66893;44.316;0.092;2023-04-15T11:33:03;19.92;48.31
76785;SHT30;66893;44.316;0.092;2023-04-15T11:35:29;19.99;48.11
76785;SHT30;66893;44.316;0.092;2023-04-15T11:37:55;20.06;48.03
76785;SHT30;66893;44.316;0.092;2023-04-15T11:40:25;20.13;47.86
76785;SHT30;66893;44.316;0.092;2023-04-15T11:43:12;20.22;47.90
76785;SHT30;66893;44.316;0.092;2023-04-15T11:48:17;20.39;47.74
76785;SHT30;66893;44.316;0.092;2023-04-15T11:50:43;20.51;47.48
76785;SHT30;66893;44.316;0.092;2023-04-15T11:53:10;20.63;47.29
76785;SHT30;66893;44.316;0.092;2023-04-15T11:58:20;20.72;47.27
76785;SHT30;66893;44.316;0.092;2023-04-15T12:00:52;20.75;47.18
76785;SHT30;66893;44.316;0.092;2023-04-15T12:03:26;20.77;47.18
76785;SHT30;66893;44.316;0.092;2023-04-15T12:11:50;20.96;46.91
76785;SHT30;66893;44.316;0.092;2023-04-15T12:14:26;21.00;46.82
76785;SHT30;66893;44.316;0.092;2023-04-15T12:16:55;21.06;46.67
76785;SHT30;66893;44.316;0.092;2023-04-15T12:19:26;21.13;46.63
76785;SHT30;66893;44.316;0.092;2023-04-15T12:22:00;21.23;46.58
76785;SHT30;66893;44.316;0.092;2023-04-15T12:24:25;21.30;46.34
76785;SHT30;66893;44.316;0.092;2023-04-15T12:26:55;21.33;46.21
76785;SHT30;66893;44.316;0.092;2023-04-15T12:29:29;21.32;46.09
76785;SHT30;66893;44.316;0.092;2023-04-15T12:31:57;21.36;45.86
76785;SHT30;66893;44.316;0.092;2023-04-15T12:34:43;21.43;45.78
76785;SHT30;66893;44.316;0.092;2023-04-15T12:37:10;21.50;45.54
76785;SHT30;66893;44.316;0.092;2023-04-15T12:39:38;21.49;44.94
76785;SHT30;66893;44.316;0.092;2023-04-15T12:42:05;21.51;45.23
76785;SHT30;66893;44.316;0.092;2023-04-15T12:44:31;21.65;44.96
76785;SHT30;66893;44.316;0.092;2023-04-15T12:46:57;21.77;44.95
76785;SHT30;66893;44.316;0.092;2023-04-15T12:49:24;21.91;45.02
76785;SHT30;66893;44.316;0.092;2023-04-15T12:51:52;22.04;44.86
76785;SHT30;66893;44.316;0.092;2023-04-15T12:54:18;22.17;44.83
76785;SHT30;66893;44.316;0.092;2023-04-15T12:56:44;22.32;44.92
76785;SHT30;66893;44.316;0.092;2023-04-15T12:59:11;22.46;44.78
76785;SHT30;66893;44.316;0.092;2023-04-15T13:01:37;22.61;44.81
76785;SHT30;66893;44.316;0.092;2023-04-15T13:04:03;22.75;44.66
76785;SHT30;66893;44.316;0.092;2023-04-15T13:06:29;22.87;44.62
76785;SHT30;66893;44.316;0.092;2023-04-15T13:08:54;23.02;44.69
76785;SHT30;66893;44.316;0.092;2023-04-15T13:11:21;23.19;44.69
76785;SHT30;66893;44.316;0.092;2023-04-15T13:13:47;23.39;44.69
76785;SHT30;66893;44.316;0.092;2023-04-15T13:16:12;23.54;44.45
76785;SHT30;66893;44.316;0.092;2023-04-15T13:18:38;23.69;44.52
76785;SHT30;66893;44.316;0.092;2023-04-15T13:21:03;23.81;44.50
76785;SHT30;66893;44.316;0.092;2023-04-15T13:23:32;23.96;44.50
76785;SHT30;66893;44.316;0.092;2023-04-15T13:25:57;24.09;44.37
76785;SHT30;66893;44.316;0.092;2023-04-15T13:28:23;24.21;44.22
76785;SHT30;66893;44.316;0.092;2023-04-15T13:30:48;24.35;44.19
76785;SHT30;66893;44.316;0.092;2023-04-15T13:33:15;24.40;44.16
76785;SHT30;66893;44.316;0.092;2023-04-15T13:35:40;24.46;44.00
76785;SHT30;66893;44.316;0.092;2023-04-15T13:38:06;24.52;44.03
76785;SHT30;66893;44.316;0.092;2023-04-15T13:40:31;24.53;43.91
76785;SHT30;66893;44.316;0.092;2023-04-15T13:42:56;24.66;43.95
76785;SHT30;66893;44.316;0.092;2023-04-15T13:45:22;24.76;43.78
76785;SHT30;66893;44.316;0.092;2023-04-15T13:47:48;24.88;43.76
76785;SHT30;66893;44.316;0.092;2023-04-15T13:50:13;24.97;43.68
76785;SHT30;66893;44.316;0.092;2023-04-15T13:52:39;25.04;43.52
76785;SHT30;66893;44.316;0.092;2023-04-15T13:55:05;25.04;43.46
76785;SHT30;66893;44.316;0.092;2023-04-15T13:57:31;25.12;43.40
76785;SHT30;66893;44.316;0.092;2023-04-15T13:59:57;25.24;43.28
76785;SHT30;66893;44.316;0.092;2023-04-15T14:02:22;25.32;43.20
76785;SHT30;66893;44.316;0.092;2023-04-15T14:04:48;25.42;42.99
76785;SHT30;66893;44.316;0.092;2023-04-15T14:07:13;25.58;43.02
76785;SHT30;66893;44.316;0.092;2023-04-15T14:09:39;25.69;42.74
76785;SHT30;66893;44.316;0.092;2023-04-15T14:12:04;25.86;42.62
76785;SHT30;66893;44.316;0.092;2023-04-15T14:14:30;25.97;42.72
76785;SHT30;66893;44.316;0.092;2023-04-15T14:16:56;26.07;42.58
76785;SHT30;66893;44.316;0.092;2023-04-15T14:19:22;26.11;42.56
76785;SHT30;66893;44.316;0.092;2023-04-15T14:21:48;26.22;42.37
76785;SHT30;66893;44.316;0.092;2023-04-15T14:24:13;26.38;42.43
76785;SHT30;66893;44.316;0.092;2023-04-15T14:26:39;26.49;42.32
76785;SHT30;66893;44.316;0.092;2023-04-15T14:29:04;26.62;42.08
76785;SHT30;66893;44.316;0.092;2023-04-15T14:31:30;26.73;41.99
76785;SHT30;66893;44.316;0.092;2023-04-15T14:33:55;26.79;42.08
76785;SHT30;66893;44.316;0.092;2023-04-15T14:36:21;26.89;41.98
76785;SHT30;66893;44.316;0.092;2023-04-15T14:38:46;26.94;41.95
76785;SHT30;66893;44.316;0.092;2023-04-15T14:41:12;27.08;41.79
76785;SHT30;66893;44.316;0.092;2023-04-15T14:43:37;27.23;41.61
76785;SHT30;66893;44.316;0.092;2023-04-15T14:46:03;27.39;41.51
76785;SHT30;66893;44.316;0.092;2023-04-15T14:48:30;27.61;41.56
76785;SHT30;66893;44.316;0.092;2023-04-15T14:50:56;27.82;41.47
76785;SHT30;66893;44.316;0.092;2023-04-15T14:53:21;28.07;41.30
76785;SHT30;66893;44.316;0.092;2023-04-15T14:55:46;28.37;41.29
76785;SHT30;66893;44.316;0.092;2023-04-15T14:58:12;28.72;41.12
76785;SHT30;66893;44.316;0.092;2023-04-15T15:00:38;29.04;40.94
76785;SHT30;66893;44.316;0.092;2023-04-15T15:03:10;29.43;40.87
76785;SHT30;66893;44.316;0.092;2023-04-15T15:05:43;30.43;40.09
76785;SHT30;66893;44.316;0.092;2023-04-15T15:08:09;32.06;38.45
76785;SHT30;66893;44.316;0.092;2023-04-15T15:10:36;33.73;36.75
76785;SHT30;66893;44.316;0.092;2023-04-15T15:13:03;35.26;35.04
76785;SHT30;66893;44.316;0.092;2023-04-15T15:15:29;35.24;34.12
76785;SHT30;66893;44.316;0.092;2023-04-15T15:17:54;34.66;34.04
76785;SHT30;66893;44.316;0.092;2023-04-15T15:20:20;34.00;34.89
76785;SHT30;66893;44.316;0.092;2023-04-15T15:22:45;33.42;35.34
76785;SHT30;66893;44.316;0.092;2023-04-15T15:25:10;33.52;35.47
76785;SHT30;66893;44.316;0.092;2023-04-15T15:27:36;33.89;35.04
76785;SHT30;66893;44.316;0.092;2023-04-15T15:30:02;34.87;34.07
76785;SHT30;66893;44.316;0.092;2023-04-15T15:32:27;35.44;33.50
76785;SHT30;66893;44.316;0.092;2023-04-15T15:34:53;36.37;32.55
76785;SHT30;66893;44.316;0.092;2023-04-15T15:37:19;36.61;32.33
76785;SHT30;66893;44.316;0.092;2023-04-15T15:39:44;37.46;31.59
76785;SHT30;66893;44.316;0.092;2023-04-15T15:42:10;38.39;30.68
76785;SHT30;66893;44.316;0.092;2023-04-15T15:44:35;38.81;29.64
76785;SHT30;66893;44.316;0.092;2023-04-15T15:47:04;38.19;30.40
76785;SHT30;66893;44.316;0.092;2023-04-15T15:49:29;38.46;30.34
76785;SHT30;66893;44.316;0.092;2023-04-15T15:51:55;39.01;29.83
76785;SHT30;66893;44.316;0.092;2023-04-15T15:54:21;39.09;29.28